This is the latest recevied weather packets stored in our database for station/object DL8TF-13. If no packets are shown the sender has not sent any weather packets the latest 10 day(s).
| Time | Temp. | Humidity | Pressure | Rain* | Wind** | Luminosity | Snow |
|---|---|---|---|---|---|---|---|
| 1777601607 | 7.22° C | 47% | 994 hPa | - | - | - | - |
| 1777601007 | 7.22° C | 47% | 994 hPa | - | - | - | - |
| 1777600407 | 7.22° C | 46% | 994 hPa | - | - | - | - |
| 1777581805 | 11.11° C | 39% | 994 hPa | - | - | - | - |
| 1777581205 | 11.67° C | 38% | 994 hPa | - | - | - | - |
| 1777580005 | 11.67° C | 37% | 994 hPa | - | - | - | - |
| 1777579405 | 12.22° C | 37% | 994 hPa | - | - | - | - |
| 1777577004 | 13.89° C | 31% | 993 hPa | - | - | - | - |
| 1777570404 | 19.44° C | 18% | 992 hPa | - | - | - | - |
| 1777569804 | 20° C | 17% | 992 hPa | - | - | - | - |
| 1777563203 | 22.78° C | 12% | 992 hPa | - | - | - | - |
| 1777560803 | 24.44° C | 11% | 992 hPa | - | - | - | - |
| 1777552402 | 33.33° C | 6% | 993 hPa | - | - | - | - |
| 1777551802 | 30° C | 7% | 993 hPa | - | - | - | - |
| 1777551202 | 31.67° C | 7% | 993 hPa | - | - | - | - |
| 1777548201 | 21.67° C | 14% | 994 hPa | - | - | - | - |
| 1777544601 | 15° C | 23% | 994 hPa | - | - | - | - |
| 1777544001 | 14.44° C | 22% | 994 hPa | - | - | - | - |
| 1777543401 | 13.89° C | 22% | 994 hPa | - | - | - | - |
| 1777542201 | 13.89° C | 23% | 995 hPa | - | - | - | - |
| 1777541601 | 13.33° C | 22% | 994 hPa | - | - | - | - |
| 1777541001 | 13.33° C | 23% | 994 hPa | - | - | - | - |
| 1777536800 | 11.67° C | 26% | 995 hPa | - | - | - | - |
| 1777534400 | 11.11° C | 27% | 995 hPa | - | - | - | - |
| 1777533800 | 10.56° C | 27% | 994 hPa | - | - | - | - |
* Rain since midnight (hover to see other rain measurements)
** Current wind speed in m/s (hover to see current wind gust speed)